Time;durP1;ratioP1;P1;durP2;ratioP2;P2;SDS_P1;SDS_P2;PMS_P1;PMS_P2;Temp;Humidity;BMP_temperature;BMP_pressure;BME280_temperature;BME280_humidity;BME280_pressure;Samples;Min_cycle;Max_cycle;Signal;HPM_P1;HPM_P2
2021/07/10 00:02:02;;;;;;;11.63;9.97;;;17.60;99.90;;;;;;4956391;29;20193;-63
2021/07/10 00:04:28;;;;;;;9.23;8.43;;;17.50;99.90;;;;;;4956044;29;20228;-63
2021/07/10 00:06:56;;;;;;;10.20;9.30;;;17.50;99.90;;;;;;4956459;28;20511;-63
2021/07/10 00:09:22;;;;;;;13.50;9.20;;;17.50;99.90;;;;;;4956042;28;20425;-63
2021/07/10 00:11:48;;;;;;;11.03;9.93;;;17.50;99.90;;;;;;4956406;29;20412;-63
2021/07/10 00:14:13;;;;;;;12.60;11.50;;;17.40;99.90;;;;;;4956367;29;20177;-62
2021/07/10 00:16:39;;;;;;;10.63;9.73;;;17.40;99.90;;;;;;4956353;29;20584;-63
2021/07/10 00:19:05;;;;;;;11.53;9.07;;;17.30;99.90;;;;;;4955501;28;20574;-62
2021/07/10 00:21:30;;;;;;;11.03;9.93;;;17.30;99.90;;;;;;4955781;29;20209;-62
2021/07/10 00:23:56;;;;;;;11.83;10.73;;;17.10;99.90;;;;;;4955949;29;20215;-63
2021/07/10 00:26:22;;;;;;;11.60;10.60;;;17.10;99.90;;;;;;4954703;29;20176;-62
2021/07/10 00:28:47;;;;;;;10.37;9.37;;;17.20;99.90;;;;;;4955477;28;20226;-63
2021/07/10 00:31:13;;;;;;;10.90;9.77;;;17.20;99.90;;;;;;4955845;29;20614;-63
2021/07/10 00:33:39;;;;;;;11.60;10.57;;;17.20;99.90;;;;;;4955970;29;20169;-63
2021/07/10 00:36:04;;;;;;;11.40;9.57;;;17.20;99.90;;;;;;4956025;29;20536;-63
2021/07/10 00:38:30;;;;;;;10.20;9.20;;;17.20;99.90;;;;;;4955903;28;20320;-63
2021/07/10 00:40:55;;;;;;;11.70;10.53;;;17.20;99.90;;;;;;4955624;29;20174;-63
2021/07/10 00:43:21;;;;;;;10.53;9.47;;;17.10;99.90;;;;;;4955129;29;20204;-63
2021/07/10 00:45:47;;;;;;;10.30;9.30;;;17.10;99.90;;;;;;4955928;29;20200;-63
2021/07/10 00:48:14;;;;;;;10.33;9.43;;;17.00;99.90;;;;;;4956156;28;20181;-63
2021/07/10 00:50:39;;;;;;;11.10;10.10;;;17.00;99.90;;;;;;4954270;29;20177;-63
2021/07/10 00:53:05;;;;;;;11.60;9.50;;;16.90;99.90;;;;;;4955335;29;20894;-63
2021/07/10 00:55:31;;;;;;;11.63;10.43;;;16.90;99.90;;;;;;4955478;29;20183;-62
2021/07/10 00:58:00;;;;;;;9.60;8.70;;;16.80;99.90;;;;;;4954910;29;20451;-63
2021/07/10 01:00:26;;;;;;;10.50;9.50;;;16.80;99.90;;;;;;4955523;28;20208;-63
2021/07/10 01:02:54;;;;;;;9.93;8.93;;;16.70;99.90;;;;;;4954390;28;20460;-63
2021/07/10 01:05:28;;;;;;;9.47;8.63;;;16.70;99.90;;;;;;4955326;29;20465;-63
2021/07/10 01:07:55;;;;;;;10.50;9.40;;;16.70;99.90;;;;;;4955258;29;20811;-63
2021/07/10 01:10:21;;;;;;;10.47;9.37;;;16.60;99.90;;;;;;4955382;28;20482;-63
2021/07/10 01:12:49;;;;;;;12.23;11.00;;;16.50;99.90;;;;;;4954849;29;20421;-63
2021/07/10 01:15:18;;;;;;;10.60;9.70;;;16.30;99.90;;;;;;4955232;28;20430;-63
2021/07/10 01:17:45;;;;;;;10.80;9.73;;;16.40;99.90;;;;;;4949895;29;20436;-63
2021/07/10 01:20:14;;;;;;;8.30;7.60;;;16.40;99.90;;;;;;4997533;23;20503;-64
2021/07/10 01:22:41;;;;;;;8.37;7.67;;;16.40;99.90;;;;;;4975608;28;20550;-65
2021/07/10 01:25:10;;;;;;;9.50;8.70;;;16.50;99.90;;;;;;4973188;28;20439;-65
2021/07/10 01:27:37;;;;;;;10.80;9.80;;;16.50;99.90;;;;;;4973697;28;20425;-65
2021/07/10 01:30:07;;;;;;;8.90;8.07;;;16.60;99.90;;;;;;4961294;28;20426;-66
2021/07/10 01:32:35;;;;;;;11.83;9.73;;;16.70;99.90;;;;;;4953660;29;20418;-65
2021/07/10 01:35:00;;;;;;;9.47;8.27;;;16.60;99.90;;;;;;4954913;28;20428;-65
2021/07/10 01:37:26;;;;;;;9.20;8.30;;;16.60;99.90;;;;;;4955240;29;20407;-65
2021/07/10 01:39:52;;;;;;;10.07;9.13;;;16.60;99.90;;;;;;4947544;28;20202;-66
2021/07/10 01:42:19;;;;;;;10.97;9.97;;;16.60;99.90;;;;;;4938688;28;20203;-66
2021/07/10 01:44:45;;;;;;;10.67;9.67;;;16.50;99.90;;;;;;4934434;29;20428;-65
2021/07/10 01:47:11;;;;;;;9.73;8.80;;;16.50;99.90;;;;;;4936022;29;20407;-65
2021/07/10 01:49:37;;;;;;;10.27;9.30;;;16.50;99.90;;;;;;4949521;28;20449;-65
2021/07/10 01:52:03;;;;;;;8.47;7.67;;;16.50;99.90;;;;;;4955108;29;20219;-65
2021/07/10 01:54:28;;;;;;;11.73;9.17;;;16.40;99.90;;;;;;4954565;29;20226;-66
2021/07/10 01:56:54;;;;;;;9.37;8.47;;;16.40;99.90;;;;;;4954862;29;20415;-65
2021/07/10 01:59:20;;;;;;;11.23;10.10;;;16.30;99.90;;;;;;4954897;28;20661;-65
2021/07/10 02:01:49;;;;;;;9.80;8.80;;;16.10;99.90;;;;;;4954764;29;20200;-65
2021/07/10 02:04:18;;;;;;;11.23;10.13;;;16.00;99.90;;;;;;4954819;29;20655;-65
2021/07/10 02:06:44;;;;;;;7.83;7.13;;;16.10;99.90;;;;;;4954718;29;20414;-65
2021/07/10 02:09:10;;;;;;;10.37;8.83;;;16.10;99.90;;;;;;4954468;28;20497;-66
2021/07/10 02:11:37;;;;;;;9.20;8.50;;;16.10;99.90;;;;;;4955107;29;20408;-65
2021/07/10 02:14:04;;;;;;;8.83;8.07;;;16.10;99.90;;;;;;4957168;28;20789;-66
2021/07/10 02:16:30;;;;;;;10.43;9.07;;;16.10;99.90;;;;;;4958799;29;20415;-65
2021/07/10 02:18:57;;;;;;;8.30;7.67;;;16.10;99.90;;;;;;4958201;28;21004;-65
2021/07/10 02:21:23;;;;;;;9.27;8.37;;;16.10;99.90;;;;;;4958742;29;20794;-65
2021/07/10 02:23:51;;;;;;;9.17;8.40;;;16.10;99.90;;;;;;4958207;29;20416;-65
2021/07/10 02:26:20;;;;;;;9.20;8.40;;;16.10;99.90;;;;;;4958785;29;20191;-65
2021/07/10 02:28:46;;;;;;;15.53;10.60;;;16.10;99.90;;;;;;4959209;28;20431;-65
2021/07/10 02:31:12;;;;;;;9.00;8.10;;;16.10;99.90;;;;;;4958790;28;21022;-65
2021/07/10 02:33:38;;;;;;;9.67;8.70;;;16.10;99.90;;;;;;4958776;29;20834;-65
2021/07/10 02:36:04;;;;;;;10.23;9.43;;;16.10;99.90;;;;;;4958597;29;20407;-65
2021/07/10 02:38:30;;;;;;;9.17;8.40;;;16.10;99.90;;;;;;4958513;28;20415;-66
2021/07/10 02:40:55;;;;;;;8.57;7.87;;;16.00;99.90;;;;;;4957751;29;20418;-65
2021/07/10 02:43:21;;;;;;;9.30;8.50;;;16.00;99.90;;;;;;4958331;29;20203;-66
2021/07/10 02:45:47;;;;;;;9.37;8.53;;;16.00;99.90;;;;;;4958396;29;20168;-65
2021/07/10 02:48:13;;;;;;;8.60;7.80;;;15.90;99.90;;;;;;4957976;29;20293;-65
2021/07/10 02:50:40;;;;;;;11.33;9.23;;;15.90;99.90;;;;;;4958233;28;20200;-65
2021/07/10 02:53:06;;;;;;;9.87;9.07;;;16.00;99.90;;;;;;4957703;28;20413;-65
2021/07/10 02:55:32;;;;;;;7.50;6.90;;;16.00;99.90;;;;;;4958312;29;20412;-65
2021/07/10 02:57:57;;;;;;;8.23;7.43;;;16.00;99.90;;;;;;4958084;29;20414;-65
2021/07/10 03:00:25;;;;;;;8.23;7.50;;;15.90;99.90;;;;;;4957814;28;20494;-64
2021/07/10 03:02:51;;;;;;;8.07;7.27;;;15.90;99.90;;;;;;4958277;29;20203;-65
2021/07/10 03:05:17;;;;;;;13.30;7.20;;;15.90;99.90;;;;;;4957808;29;20829;-65
2021/07/10 03:07:44;;;;;;;8.77;8.10;;;15.90;99.90;;;;;;4957429;29;20272;-65
2021/07/10 03:10:15;;;;;;;7.80;7.00;;;15.90;99.90;;;;;;4957612;28;20446;-65
2021/07/10 03:12:41;;;;;;;8.20;7.50;;;15.80;99.90;;;;;;4957946;28;20405;-65
2021/07/10 03:15:09;;;;;;;10.90;9.80;;;15.80;99.90;;;;;;4957646;29;20512;-65
2021/07/10 03:17:36;;;;;;;8.83;7.50;;;15.70;99.90;;;;;;4957776;29;20189;-65
2021/07/10 03:20:04;;;;;;;9.00;8.20;;;15.70;99.90;;;;;;4957052;28;20966;-65
2021/07/10 03:22:30;;;;;;;9.30;8.53;;;15.70;99.90;;;;;;4957342;29;20955;-65
2021/07/10 03:24:55;;;;;;;11.10;7.77;;;15.70;99.90;;;;;;4956178;28;20415;-65
2021/07/10 03:27:21;;;;;;;9.80;9.00;;;15.70;99.90;;;;;;4957170;29;20171;-66
2021/07/10 03:29:47;;;;;;;9.30;8.50;;;15.70;99.90;;;;;;4957359;29;20191;-66
2021/07/10 03:32:12;;;;;;;8.47;7.77;;;15.70;99.90;;;;;;4957206;28;20187;-65
2021/07/10 03:34:38;;;;;;;7.63;6.93;;;15.70;99.90;;;;;;4957213;29;20668;-65
2021/07/10 03:37:04;;;;;;;6.77;6.17;;;15.70;99.90;;;;;;4957843;28;20270;-65
2021/07/10 03:39:29;;;;;;;8.37;7.67;;;15.70;99.90;;;;;;4956936;29;20236;-65
2021/07/10 03:41:55;;;;;;;8.33;7.53;;;15.70;99.90;;;;;;4956993;29;20253;-65
2021/07/10 03:44:21;;;;;;;8.17;7.57;;;15.50;99.90;;;;;;4957050;28;20260;-65
2021/07/10 03:46:47;;;;;;;9.73;8.93;;;15.60;99.90;;;;;;4956946;29;20647;-65
2021/07/10 03:49:13;;;;;;;8.50;7.80;;;15.70;99.90;;;;;;4956596;28;20677;-65
2021/07/10 03:51:38;;;;;;;9.33;8.53;;;15.70;99.90;;;;;;4956843;29;20185;-65
2021/07/10 03:54:05;;;;;;;7.83;7.13;;;15.70;99.90;;;;;;4956596;29;20564;-65
2021/07/10 03:56:31;;;;;;;7.60;7.00;;;15.70;99.90;;;;;;4956768;29;20181;-65
2021/07/10 03:58:56;;;;;;;8.10;7.40;;;15.70;99.90;;;;;;4956969;28;20463;-65
2021/07/10 04:01:22;;;;;;;9.13;8.30;;;15.70;99.90;;;;;;4956636;29;20178;-65
2021/07/10 04:03:47;;;;;;;8.93;8.23;;;15.70;99.90;;;;;;4956482;29;20225;-65
2021/07/10 04:06:13;;;;;;;10.53;9.53;;;15.80;99.90;;;;;;4956780;29;20619;-64
2021/07/10 04:08:39;;;;;;;9.50;8.60;;;15.80;99.90;;;;;;4956412;28;20205;-64
2021/07/10 04:11:07;;;;;;;10.20;9.00;;;15.70;99.90;;;;;;4956940;29;20235;-64
2021/07/10 04:13:32;;;;;;;8.97;8.20;;;15.70;99.90;;;;;;4956563;29;20521;-66
2021/07/10 04:16:00;;;;;;;8.50;7.70;;;15.80;99.90;;;;;;4956586;29;20419;-65
2021/07/10 04:18:26;;;;;;;7.73;7.03;;;15.80;99.90;;;;;;4956058;29;20182;-65
2021/07/10 04:20:51;;;;;;;8.43;7.73;;;15.90;99.90;;;;;;4956207;28;20547;-65
2021/07/10 04:23:17;;;;;;;7.90;7.20;;;15.90;99.90;;;;;;4956022;29;20199;-65
2021/07/10 04:25:42;;;;;;;7.80;7.20;;;16.00;99.90;;;;;;4956517;29;20180;-65
2021/07/10 04:28:08;;;;;;;7.60;6.90;;;15.90;99.90;;;;;;4956282;29;20167;-65
2021/07/10 04:30:34;;;;;;;8.57;7.77;;;15.90;99.90;;;;;;4956141;28;20334;-65
2021/07/10 04:32:59;;;;;;;8.57;7.87;;;15.90;99.90;;;;;;4951136;29;20195;-65
2021/07/10 04:35:25;;;;;;;9.97;9.13;;;15.90;99.90;;;;;;4938877;29;20214;-64
2021/07/10 04:37:51;;;;;;;7.33;6.83;;;15.90;99.90;;;;;;4937999;29;20634;-65
2021/07/10 04:40:17;;;;;;;8.73;7.93;;;16.00;99.90;;;;;;4937653;29;20195;-65
2021/07/10 04:42:43;;;;;;;8.33;7.70;;;16.00;99.90;;;;;;4939853;29;20204;-64
2021/07/10 04:45:09;;;;;;;9.53;8.37;;;16.00;99.90;;;;;;4939030;29;20576;-64
2021/07/10 04:47:35;;;;;;;8.97;8.17;;;16.10;99.90;;;;;;4936499;29;20451;-64
2021/07/10 04:50:01;;;;;;;9.83;8.90;;;16.10;99.90;;;;;;4953949;28;20456;-64
2021/07/10 04:52:28;;;;;;;10.60;7.97;;;16.10;99.90;;;;;;4956064;29;20508;-66
2021/07/10 04:54:54;;;;;;;9.30;8.50;;;16.20;99.90;;;;;;4955896;29;20188;-64
2021/07/10 04:57:20;;;;;;;9.03;7.63;;;16.20;99.90;;;;;;4955772;29;20496;-65
2021/07/10 04:59:45;;;;;;;9.37;8.57;;;16.20;99.90;;;;;;4955804;28;20922;-64
2021/07/10 05:02:11;;;;;;;8.47;7.67;;;16.30;99.90;;;;;;4955648;29;20241;-64
2021/07/10 05:04:36;;;;;;;9.40;8.50;;;16.30;99.90;;;;;;4955725;29;20221;-65
2021/07/10 05:07:02;;;;;;;9.53;8.57;;;16.40;99.90;;;;;;4955713;29;20252;-65
2021/07/10 05:09:28;;;;;;;9.80;8.80;;;16.50;99.90;;;;;;4955410;28;20221;-65
2021/07/10 05:11:54;;;;;;;8.40;7.60;;;16.50;99.90;;;;;;4955904;29;20891;-65
2021/07/10 05:14:19;;;;;;;8.80;7.90;;;16.60;99.90;;;;;;4955542;29;20544;-65
2021/07/10 05:16:45;;;;;;;9.47;8.67;;;16.70;99.90;;;;;;4955497;29;20182;-65
2021/07/10 05:19:11;;;;;;;8.47;7.80;;;16.70;99.90;;;;;;4954987;29;20256;-65
2021/07/10 05:21:36;;;;;;;9.53;8.63;;;16.80;99.90;;;;;;4955365;29;20690;-65
2021/07/10 05:24:03;;;;;;;9.63;8.73;;;16.90;99.90;;;;;;4955240;29;20170;-65
2021/07/10 05:26:28;;;;;;;9.20;7.77;;;17.10;99.90;;;;;;4955440;28;20183;-65
2021/07/10 05:28:54;;;;;;;9.67;8.97;;;17.20;99.90;;;;;;4955556;29;21004;-65
2021/07/10 05:31:20;;;;;;;8.40;7.70;;;17.30;99.90;;;;;;4955352;28;20612;-64
2021/07/10 05:33:46;;;;;;;8.50;7.87;;;17.40;99.90;;;;;;4955162;29;20410;-65
2021/07/10 05:36:11;;;;;;;8.17;7.57;;;17.40;99.90;;;;;;4955525;29;20203;-65
2021/07/10 05:38:37;;;;;;;8.37;7.60;;;17.50;99.90;;;;;;4955258;29;20268;-65
2021/07/10 05:41:03;;;;;;;9.57;8.77;;;17.60;99.90;;;;;;4955481;29;20178;-65
2021/07/10 05:43:28;;;;;;;8.63;7.90;;;17.70;99.90;;;;;;4955658;29;20192;-65
2021/07/10 05:45:54;;;;;;;8.20;7.60;;;17.90;99.90;;;;;;4955157;29;20181;-66
2021/07/10 05:48:21;;;;;;;7.97;7.27;;;18.00;99.90;;;;;;4956443;28;20185;-65
2021/07/10 05:50:47;;;;;;;7.33;6.73;;;18.10;99.90;;;;;;4957617;28;20668;-65
2021/07/10 05:53:13;;;;;;;7.80;7.20;;;18.10;99.90;;;;;;4958883;29;20969;-65
2021/07/10 05:55:39;;;;;;;8.50;7.70;;;18.30;99.90;;;;;;4959324;29;20891;-65
2021/07/10 05:58:05;;;;;;;8.53;7.70;;;18.30;99.90;;;;;;4958946;29;20432;-66
2021/07/10 06:00:32;;;;;;;8.20;7.47;;;18.40;99.90;;;;;;4958014;28;20441;-65
2021/07/10 06:02:58;;;;;;;8.47;7.60;;;18.70;99.90;;;;;;4958965;29;20186;-65
2021/07/10 06:05:25;;;;;;;8.40;7.70;;;18.90;99.90;;;;;;4959127;29;20409;-65
2021/07/10 06:07:51;;;;;;;8.10;7.40;;;19.10;99.90;;;;;;4959516;29;20461;-66
2021/07/10 06:10:17;;;;;;;8.53;7.73;;;19.20;99.90;;;;;;4958653;28;20512;-65
2021/07/10 06:12:44;;;;;;;8.07;7.47;;;19.20;99.90;;;;;;4959230;29;20885;-65
2021/07/10 06:15:12;;;;;;;9.00;8.20;;;19.30;99.90;;;;;;4958805;29;20249;-65
2021/07/10 06:17:38;;;;;;;7.93;7.23;;;19.40;99.90;;;;;;4958384;29;20902;-66
2021/07/10 06:20:07;;;;;;;7.97;7.27;;;19.40;99.90;;;;;;4958372;28;20457;-65
2021/07/10 06:22:33;;;;;;;7.10;6.50;;;19.50;99.90;;;;;;4958669;29;21006;-66
2021/07/10 06:24:58;;;;;;;8.23;7.53;;;19.60;99.90;;;;;;4958312;29;20437;-66
2021/07/10 06:27:24;;;;;;;8.53;7.60;;;19.60;99.90;;;;;;4958416;29;20170;-66
2021/07/10 06:29:50;;;;;;;7.07;6.47;;;19.80;99.90;;;;;;4958422;28;20194;-66
2021/07/10 06:32:15;;;;;;;7.27;6.60;;;19.90;99.90;;;;;;4957369;29;20174;-66
2021/07/10 06:34:41;;;;;;;7.20;6.57;;;20.00;99.90;;;;;;4958426;29;20224;-66
2021/07/10 06:37:06;;;;;;;8.03;7.27;;;20.10;99.90;;;;;;4958384;29;20185;-66
2021/07/10 06:39:33;;;;;;;8.07;7.33;;;20.20;99.90;;;;;;4958216;28;20205;-66
2021/07/10 06:41:58;;;;;;;7.33;6.73;;;20.10;99.90;;;;;;4958524;29;20205;-66
2021/07/10 06:44:24;;;;;;;6.87;6.27;;;20.10;99.90;;;;;;4958736;29;20414;-66
2021/07/10 06:46:50;;;;;;;6.90;6.40;;;20.20;99.90;;;;;;4958490;29;20181;-66
2021/07/10 06:49:15;;;;;;;6.87;6.27;;;20.30;99.90;;;;;;4957939;28;20182;-66
2021/07/10 06:51:42;;;;;;;7.53;6.93;;;20.40;99.90;;;;;;4958192;29;20417;-66
2021/07/10 06:54:08;;;;;;;7.63;6.90;;;20.40;99.90;;;;;;4957733;29;20173;-66
2021/07/10 06:56:34;;;;;;;7.60;6.33;;;20.60;99.90;;;;;;4956807;29;20430;-68
2021/07/10 06:58:59;;;;;;;7.07;6.47;;;20.80;99.90;;;;;;4958092;28;20439;-64
2021/07/10 07:01:27;;;;;;;7.03;5.70;;;20.90;99.90;;;;;;4958074;29;20538;-63
2021/07/10 07:03:53;;;;;;;7.00;6.50;;;20.60;99.90;;;;;;4957981;29;20255;-66
2021/07/10 07:06:19;;;;;;;6.40;5.80;;;20.60;99.90;;;;;;4957714;29;20401;-64
2021/07/10 07:08:45;;;;;;;8.37;7.57;;;20.70;99.90;;;;;;4957731;28;20468;-66
2021/07/10 07:11:11;;;;;;;7.53;6.60;;;20.90;99.90;;;;;;4957248;29;20175;-62
2021/07/10 07:13:37;;;;;;;7.23;6.53;;;20.80;99.90;;;;;;4957918;29;20182;-63
2021/07/10 07:16:02;;;;;;;6.30;5.73;;;20.80;99.90;;;;;;4957830;29;20410;-66
2021/07/10 07:18:28;;;;;;;7.30;6.70;;;20.70;99.90;;;;;;4957726;29;20170;-65
2021/07/10 07:20:53;;;;;;;7.13;6.53;;;20.90;99.90;;;;;;4957281;29;20190;-65
2021/07/10 07:23:19;;;;;;;7.50;6.80;;;21.00;99.90;;;;;;4969314;23;20193;-59
2021/07/10 07:25:45;;;;;;;9.03;7.30;;;21.00;99.90;;;;;;4924720;29;20190;-60
2021/07/10 07:28:10;;;;;;;9.30;7.20;;;21.10;99.90;;;;;;4938728;29;20174;-60
2021/07/10 07:30:36;;;;;;;7.10;6.50;;;21.10;99.90;;;;;;4937648;29;20512;-60
2021/07/10 07:33:02;;;;;;;7.70;7.00;;;21.10;99.90;;;;;;4937649;29;20163;-55
2021/07/10 07:35:28;;;;;;;7.40;6.77;;;21.10;99.90;;;;;;4937472;29;20253;-60
2021/07/10 07:37:54;;;;;;;6.37;5.83;;;21.20;99.90;;;;;;4937978;29;20269;-60
2021/07/10 07:40:19;;;;;;;6.77;6.10;;;21.40;99.90;;;;;;4937505;29;20971;-60
2021/07/10 07:42:46;;;;;;;7.50;6.80;;;21.40;99.90;;;;;;4932757;29;20283;-61
2021/07/10 07:45:12;;;;;;;6.90;6.30;;;21.50;99.90;;;;;;4918756;29;20215;-61
2021/07/10 07:47:38;;;;;;;8.00;6.77;;;21.40;99.90;;;;;;4918950;29;20404;-61
2021/07/10 07:50:07;;;;;;;5.47;5.07;;;21.30;99.90;;;;;;4918449;29;20507;-61
2021/07/10 07:52:33;;;;;;;5.97;5.47;;;21.40;99.90;;;;;;4917069;29;20427;-60
2021/07/10 07:55:00;;;;;;;6.30;5.70;;;21.50;99.90;;;;;;4918206;29;20435;-61
2021/07/10 07:57:26;;;;;;;6.87;6.17;;;21.60;99.90;;;;;;4918544;29;20447;-61
2021/07/10 07:59:52;;;;;;;6.50;6.00;;;21.50;99.90;;;;;;4917515;29;20469;-61
2021/07/10 08:02:17;;;;;;;7.10;6.50;;;21.50;99.90;;;;;;4918050;29;20447;-61
2021/07/10 08:04:43;;;;;;;6.90;6.40;;;21.40;99.90;;;;;;4917873;29;20195;-61
2021/07/10 08:07:09;;;;;;;6.30;5.77;;;21.30;99.90;;;;;;4918204;29;20561;-61
2021/07/10 08:09:34;;;;;;;6.50;5.83;;;21.40;99.90;;;;;;4918107;29;20163;-61
2021/07/10 08:12:00;;;;;;;6.47;5.97;;;21.50;99.90;;;;;;4917495;29;20187;-61
2021/07/10 08:14:26;;;;;;;7.53;6.83;;;21.70;99.90;;;;;;4918156;29;20203;-61
2021/07/10 08:16:52;;;;;;;7.60;6.90;;;22.00;99.90;;;;;;4918067;29;20206;-61
2021/07/10 08:19:18;;;;;;;5.87;5.30;;;21.80;99.90;;;;;;4917812;29;20643;-61
2021/07/10 08:21:45;;;;;;;6.67;6.07;;;21.80;99.90;;;;;;4918237;29;20905;-61
2021/07/10 08:24:11;;;;;;;6.73;6.23;;;21.70;99.90;;;;;;4916257;29;20991;-61
2021/07/10 08:26:37;;;;;;;7.53;6.83;;;21.60;99.90;;;;;;4917700;29;20416;-61
2021/07/10 08:29:05;;;;;;;6.30;5.30;;;21.60;99.90;;;;;;4917838;29;20416;-61
2021/07/10 08:31:33;;;;;;;5.97;5.53;;;21.70;99.90;;;;;;4917984;29;20411;-61
2021/07/10 08:33:59;;;;;;;5.10;4.70;;;21.80;99.90;;;;;;4917216;29;20944;-61
2021/07/10 08:36:24;;;;;;;5.37;4.97;;;21.90;99.90;;;;;;4917523;29;20412;-61
2021/07/10 08:38:50;;;;;;;5.70;5.17;;;22.00;99.90;;;;;;4916025;29;20426;-61
2021/07/10 08:41:16;;;;;;;5.87;5.37;;;22.00;99.90;;;;;;4917101;29;20174;-61
2021/07/10 08:43:44;;;;;;;5.67;5.17;;;21.90;99.90;;;;;;4917342;29;20207;-61
2021/07/10 08:46:12;;;;;;;6.67;6.07;;;22.00;99.90;;;;;;4917422;29;20430;-61
2021/07/10 08:48:38;;;;;;;5.37;4.97;;;22.10;99.90;;;;;;4917402;29;20778;-61
2021/07/10 08:51:06;;;;;;;6.33;5.80;;;22.10;99.90;;;;;;4917313;29;20502;-61
2021/07/10 08:53:32;;;;;;;5.60;5.17;;;22.20;99.90;;;;;;4916934;29;20462;-60
2021/07/10 08:55:58;;;;;;;4.70;4.40;;;22.40;99.90;;;;;;4917242;29;20424;-61
2021/07/10 08:58:25;;;;;;;5.80;5.20;;;22.30;99.90;;;;;;4917492;29;20423;-61
2021/07/10 09:00:51;;;;;;;5.50;5.10;;;22.50;99.90;;;;;;4917492;29;20408;-61
2021/07/10 09:03:17;;;;;;;6.10;5.50;;;22.60;99.90;;;;;;4916923;29;20522;-61
2021/07/10 09:05:44;;;;;;;7.60;6.07;;;22.70;99.90;;;;;;4917403;29;20408;-61
2021/07/10 09:08:19;;;;;;;6.10;5.60;;;22.70;99.90;;;;;;4915937;29;20424;-60
2021/07/10 09:10:56;;;;;;;4.90;4.40;;;22.70;99.90;;;;;;4916765;29;20395;-61
2021/07/10 09:13:31;;;;;;;4.73;4.33;;;22.60;99.90;;;;;;4917261;29;20502;-61
2021/07/10 09:16:05;;;;;;;4.17;3.87;;;22.50;99.90;;;;;;4916905;29;20415;-61
2021/07/10 09:18:46;;;;;;;4.97;4.13;;;22.60;99.90;;;;;;4917015;29;20499;-61
2021/07/10 09:21:15;;;;;;;4.40;3.80;;;22.50;99.90;;;;;;4916974;29;20395;-61
2021/07/10 09:23:44;;;;;;;4.13;3.73;;;22.60;99.90;;;;;;4916743;29;21009;-61
2021/07/10 09:26:20;;;;;;;4.20;3.80;;;22.70;99.90;;;;;;4916303;29;20762;-61
2021/07/10 09:28:57;;;;;;;4.10;3.80;;;22.70;99.90;;;;;;4916332;29;20419;-61
2021/07/10 09:31:29;;;;;;;4.77;4.13;;;22.80;99.90;;;;;;4916013;29;20427;-61
2021/07/10 09:34:00;;;;;;;4.97;4.57;;;22.90;99.90;;;;;;4916274;29;20431;-61
2021/07/10 09:36:26;;;;;;;4.70;4.30;;;23.20;99.90;;;;;;4915965;29;20503;-61
2021/07/10 09:38:53;;;;;;;4.07;3.77;;;23.50;99.90;;;;;;4915698;29;20490;-61
2021/07/10 09:41:26;;;;;;;3.83;3.53;;;23.60;99.90;;;;;;4916337;29;20510;-61
2021/07/10 09:43:56;;;;;;;4.00;3.70;;;23.60;99.90;;;;;;4914629;29;20444;-61
2021/07/10 09:46:27;;;;;;;4.97;4.47;;;23.70;99.90;;;;;;4915905;29;20492;-61
2021/07/10 09:48:53;;;;;;;4.07;3.77;;;23.90;99.90;;;;;;4916367;29;20395;-61
2021/07/10 09:51:24;;;;;;;4.40;4.00;;;24.00;99.90;;;;;;4916064;29;20406;-61
2021/07/10 09:54:09;;;;;;;4.70;4.30;;;23.80;99.90;;;;;;4914551;29;20483;-61
2021/07/10 09:56:37;;;;;;;4.60;4.30;;;23.80;99.90;;;;;;4916047;29;20395;-61
2021/07/10 09:59:19;;;;;;;4.93;4.43;;;23.60;99.90;;;;;;4915787;29;20414;-61
2021/07/10 10:01:46;;;;;;;4.90;4.50;;;23.30;99.90;;;;;;4915895;29;20445;-61
2021/07/10 10:04:28;;;;;;;4.17;3.87;;;23.40;99.90;;;;;;4915934;29;20875;-61
2021/07/10 10:06:55;;;;;;;4.17;3.83;;;24.00;99.90;;;;;;4915878;29;20415;-61
2021/07/10 10:09:27;;;;;;;4.17;3.80;;;24.20;99.90;;;;;;4915291;29;20810;-61
2021/07/10 10:12:08;;;;;;;4.90;3.87;;;24.20;99.90;;;;;;4915609;29;20494;-62
2021/07/10 10:14:41;;;;;;;3.70;3.40;;;24.40;99.90;;;;;;4915582;29;20423;-60
2021/07/10 10:17:06;;;;;;;4.00;3.70;;;24.60;99.90;;;;;;4912724;29;20435;-62
2021/07/10 10:19:33;;;;;;;4.33;3.63;;;24.70;99.90;;;;;;4909741;29;20424;-61
2021/07/10 10:22:04;;;;;;;3.63;3.33;;;24.70;99.90;;;;;;4915585;29;20187;-61
2021/07/10 10:24:30;;;;;;;3.90;3.50;;;24.60;99.90;;;;;;4878698;29;1104036;-61
2021/07/10 10:26:57;;;;;;;3.97;3.60;;;24.60;99.90;;;;;;4916105;29;20195;-61
2021/07/10 10:29:25;;;;;;;3.40;3.10;;;24.80;99.90;;;;;;4915444;29;20931;-61
2021/07/10 10:31:52;;;;;;;4.00;3.47;;;24.90;99.50;;;;;;4916266;29;20912;-61
2021/07/10 10:34:18;;;;;;;3.23;2.93;;;24.80;99.90;;;;;;4916993;29;20824;-62
2021/07/10 10:36:47;;;;;;;3.73;2.90;;;25.00;99.50;;;;;;4919891;29;20415;-61
2021/07/10 10:39:36;;;;;;;3.70;3.40;;;25.20;99.40;;;;;;4919978;29;20487;-62
2021/07/10 10:42:16;;;;;;;2.73;2.53;;;25.60;99.40;;;;;;4919729;29;20443;-61
2021/07/10 10:44:43;;;;;;;3.20;2.90;;;25.70;99.90;;;;;;4919910;29;20434;-60
2021/07/10 10:47:11;;;;;;;3.33;3.03;;;25.30;97.50;;;;;;4919611;29;20418;-61
2021/07/10 10:49:47;;;;;;;5.03;2.97;;;25.20;98.50;;;;;;4919547;29;20423;-62
2021/07/10 10:52:35;;;;;;;4.30;3.50;;;25.50;98.90;;;;;;4919178;29;20437;-62
2021/07/10 10:55:21;;;;;;;2.63;2.43;;;25.60;99.10;;;;;;4917842;29;20979;-61
2021/07/10 10:58:00;;;;;;;3.57;2.90;;;25.50;97.90;;;;;;4919801;29;20392;-61
2021/07/10 11:00:36;;;;;;;3.20;2.90;;;25.50;97.70;;;;;;4919739;29;20447;-61
2021/07/10 11:03:07;;;;;;;3.00;2.80;;;25.40;97.60;;;;;;4919014;29;20911;-61
2021/07/10 11:05:33;;;;;;;3.10;2.90;;;25.40;98.20;;;;;;4919594;29;20407;-61
2021/07/10 11:08:17;;;;;;;3.87;3.30;;;25.50;97.70;;;;;;4919548;29;20495;-61
2021/07/10 11:10:46;;;;;;;4.07;3.07;;;25.70;96.90;;;;;;4918995;29;20486;-62
2021/07/10 11:13:28;;;;;;;3.07;2.87;;;26.00;97.50;;;;;;4919416;29;20471;-61
2021/07/10 11:16:10;;;;;;;3.80;2.70;;;25.80;96.80;;;;;;4919482;29;20411;-61
2021/07/10 11:18:59;;;;;;;3.53;3.33;;;25.70;96.50;;;;;;4918816;29;20403;-61
2021/07/10 11:21:41;;;;;;;3.30;3.00;;;25.90;97.40;;;;;;4916062;29;20802;-61
2021/07/10 11:24:19;;;;;;;3.20;3.00;;;25.90;96.80;;;;;;4918510;29;20477;-61
2021/07/10 11:26:54;;;;;;;2.73;2.53;;;25.80;97.70;;;;;;4918865;29;20502;-61
2021/07/10 11:29:33;;;;;;;3.20;2.90;;;25.60;96.40;;;;;;4916323;29;20909;-61
2021/07/10 11:32:25;;;;;;;3.20;2.90;;;25.90;95.70;;;;;;4921147;29;20394;-61
2021/07/10 11:34:56;;;;;;;3.30;3.10;;;26.80;96.70;;;;;;4919136;29;20803;-62
2021/07/10 11:37:26;;;;;;;3.50;3.27;;;28.00;94.70;;;;;;4918582;29;20889;-62
2021/07/10 11:39:59;;;;;;;3.00;2.80;;;28.70;92.30;;;;;;4918630;29;20418;-62
2021/07/10 11:42:26;;;;;;;2.50;2.30;;;29.90;91.20;;;;;;4918896;29;20824;-62
2021/07/10 11:45:13;;;;;;;3.00;2.70;;;31.90;86.20;;;;;;4916967;29;20435;-62
2021/07/10 11:47:44;;;;;;;3.00;2.70;;;32.60;86.80;;;;;;4918065;29;20815;-62
2021/07/10 11:50:33;;;;;;;3.17;2.97;;;32.70;79.70;;;;;;4918758;29;20418;-62
2021/07/10 11:53:08;;;;;;;4.10;2.47;;;33.50;80.10;;;;;;4918359;29;20396;-62
2021/07/10 11:55:45;;;;;;;3.60;3.00;;;33.50;74.60;;;;;;4918819;29;20388;-62
2021/07/10 11:58:14;;;;;;;3.00;2.80;;;31.50;78.60;;;;;;4917167;29;20491;-62
2021/07/10 12:00:40;;;;;;;2.90;2.70;;;31.00;80.80;;;;;;4918082;29;20467;-62
2021/07/10 12:03:20;;;;;;;2.80;2.60;;;30.10;80.10;;;;;;4916809;29;20697;-62
2021/07/10 12:05:47;;;;;;;3.03;2.80;;;32.00;78.90;;;;;;4918555;29;20458;-62
2021/07/10 12:08:13;;;;;;;2.97;2.77;;;32.70;74.60;;;;;;4916888;29;20952;-62
2021/07/10 12:10:42;;;;;;;2.83;2.57;;;32.30;75.40;;;;;;4918373;29;20451;-62
2021/07/10 12:13:12;;;;;;;4.43;3.23;;;31.80;78.30;;;;;;4917901;29;20785;-62
2021/07/10 12:15:48;;;;;;;2.83;2.63;;;30.60;78.20;;;;;;4918257;29;20404;-62
2021/07/10 12:18:15;;;;;;;3.27;2.90;;;31.30;78.00;;;;;;4917845;29;20467;-62
2021/07/10 12:20:45;;;;;;;2.80;2.60;;;32.50;76.20;;;;;;4918264;29;20419;-62
2021/07/10 12:23:28;;;;;;;3.07;2.87;;;33.70;74.20;;;;;;4918319;29;20451;-62
2021/07/10 12:26:00;;;;;;;2.53;2.33;;;33.80;69.70;;;;;;4917727;29;20455;-62
2021/07/10 12:28:46;;;;;;;3.00;2.33;;;33.50;68.20;;;;;;4916452;29;20416;-62
2021/07/10 12:31:26;;;;;;;2.40;2.20;;;34.30;67.40;;;;;;4918131;29;20408;-62
2021/07/10 12:33:57;;;;;;;2.70;2.50;;;36.10;64.20;;;;;;4916493;29;20434;-63
2021/07/10 12:36:32;;;;;;;3.70;2.67;;;37.30;63.00;;;;;;4917633;29;20475;-63
2021/07/10 12:39:00;;;;;;;2.40;2.10;;;38.40;59.00;;;;;;4917957;29;20458;-63
2021/07/10 12:41:39;;;;;;;3.70;2.67;;;37.90;56.90;;;;;;4917859;29;20418;-63
2021/07/10 12:44:18;;;;;;;2.57;2.37;;;35.30;58.80;;;;;;4917626;29;20438;-63
2021/07/10 12:46:44;;;;;;;3.07;2.50;;;35.80;60.90;;;;;;4917751;29;20419;-63
2021/07/10 12:49:10;;;;;;;2.10;2.00;;;35.40;59.60;;;;;;4917090;29;20404;-62
2021/07/10 12:51:36;;;;;;;2.43;2.23;;;35.50;57.80;;;;;;4917931;29;20412;-63